createdAt,value
2022-10-28T00:01:25.099Z,101927.75
2022-10-28T00:03:57.605Z,101926.90
2022-10-28T00:06:42.035Z,101918.55
2022-10-28T00:09:12.268Z,101915.53
2022-10-28T00:11:41.230Z,101920.08
2022-10-28T00:14:11.669Z,101918.65
2022-10-28T00:16:40.399Z,101919.52
2022-10-28T00:19:13.046Z,101920.39
2022-10-28T00:21:46.048Z,101911.45
2022-10-28T00:35:34.404Z,101905.80
2022-10-28T00:38:01.908Z,101900.64
2022-10-28T00:40:34.663Z,101899.91
2022-10-28T00:43:02.001Z,101903.62
2022-10-28T00:45:29.347Z,101899.91
2022-10-28T00:48:03.856Z,101899.92
2022-10-28T00:50:51.406Z,101906.44
2022-10-28T00:53:31.089Z,101904.13
2022-10-28T00:56:01.592Z,101899.90
2022-10-28T00:58:29.520Z,101899.25
2022-10-28T01:00:56.758Z,101893.13
2022-10-28T01:03:24.022Z,101893.99
2022-10-28T01:05:52.769Z,101896.73
2022-10-28T01:08:20.069Z,101898.58
2022-10-28T01:11:15.569Z,101897.14
2022-10-28T01:14:37.964Z,101879.05
2022-10-28T01:17:12.191Z,101887.73
2022-10-28T01:20:36.067Z,101898.11
2022-10-28T01:23:31.893Z,101888.80
2022-10-28T01:26:33.936Z,101888.03
2022-10-28T01:29:24.616Z,101892.61
2022-10-28T01:31:58.709Z,101888.94
2022-10-28T01:35:04.210Z,101883.48
2022-10-28T01:37:47.261Z,101884.21
2022-10-28T01:40:37.772Z,101882.66
2022-10-28T01:43:26.364Z,101885.94
2022-10-28T01:46:21.327Z,101879.73
2022-10-28T01:49:11.011Z,101878.46
2022-10-28T01:51:45.937Z,101880.42
2022-10-28T01:54:18.904Z,101878.41
2022-10-28T01:56:48.242Z,101879.58
2022-10-28T01:59:24.408Z,101880.35
2022-10-28T02:01:51.552Z,101876.89
2022-10-28T02:04:18.594Z,101879.78
2022-10-28T02:06:50.549Z,101876.72
2022-10-28T02:10:03.441Z,101869.81
2022-10-28T02:12:39.123Z,101872.49
2022-10-28T02:15:36.832Z,101864.80
2022-10-28T02:19:01.328Z,101859.98
2022-10-28T02:21:46.765Z,101864.88
2022-10-28T02:24:25.987Z,101861.45
2022-10-28T02:27:05.634Z,101862.72
2022-10-28T02:29:49.431Z,101864.02
2022-10-28T02:32:24.796Z,101870.06
2022-10-28T02:34:57.003Z,101868.81
2022-10-28T02:37:35.034Z,101873.18
2022-10-28T02:40:12.214Z,101870.02
2022-10-28T02:43:03.692Z,101869.35
2022-10-28T02:45:49.007Z,101871.38
2022-10-28T02:48:28.270Z,101868.55
2022-10-28T02:51:07.228Z,101868.39
2022-10-28T02:53:47.154Z,101869.48
2022-10-28T02:56:17.639Z,101870.42
2022-10-28T02:58:44.887Z,101874.81
2022-10-28T03:01:11.821Z,101871.36
2022-10-28T03:03:39.349Z,101871.05
2022-10-28T03:06:06.275Z,101873.43
2022-10-28T03:08:33.095Z,101872.20
2022-10-28T03:10:59.949Z,101872.35
2022-10-28T03:13:26.722Z,101871.29
2022-10-28T03:15:53.562Z,101871.48
2022-10-28T03:18:20.429Z,101864.52
2022-10-28T03:20:47.253Z,101862.14
2022-10-28T03:23:14.083Z,101862.53
2022-10-28T03:25:40.904Z,101859.17
2022-10-28T03:28:07.774Z,101859.80
2022-10-28T03:30:34.627Z,101858.29
2022-10-28T03:33:01.399Z,101859.55
2022-10-28T03:35:28.222Z,101860.80
2022-10-28T03:37:55.062Z,101859.31
2022-10-28T03:40:22.039Z,101857.59
2022-10-28T03:42:48.985Z,101855.49
2022-10-28T03:45:16.143Z,101857.27
2022-10-28T03:47:43.264Z,101858.88
2022-10-28T03:50:10.382Z,101858.89
2022-10-28T03:52:37.579Z,101859.12
2022-10-28T03:55:05.312Z,101858.70
2022-10-28T03:57:33.070Z,101856.65
2022-10-28T04:00:00.173Z,101854.91
2022-10-28T04:02:27.600Z,101856.73
2022-10-28T04:04:54.868Z,101856.93
2022-10-28T04:07:21.982Z,101857.59
2022-10-28T04:09:50.997Z,101855.86
2022-10-28T04:12:18.721Z,101855.52
2022-10-28T04:14:45.762Z,101856.75
2022-10-28T04:17:12.900Z,101858.09
2022-10-28T04:19:40.124Z,101856.30
2022-10-28T04:22:08.752Z,101859.06
2022-10-28T04:24:35.804Z,101853.98
2022-10-28T04:27:03.349Z,101853.23
2022-10-28T04:29:31.999Z,101851.70
2022-10-28T04:31:59.212Z,101853.67
2022-10-28T04:34:26.227Z,101850.63
2022-10-28T04:36:53.471Z,101855.02
2022-10-28T04:39:20.459Z,101855.70
2022-10-28T04:41:47.862Z,101856.54
2022-10-28T04:44:14.968Z,101856.50
2022-10-28T04:46:42.175Z,101850.89
2022-10-28T04:49:09.672Z,101853.17
2022-10-28T04:51:36.789Z,101854.79
2022-10-28T04:54:04.041Z,101856.20
2022-10-28T04:56:32.822Z,101858.11
2022-10-28T04:58:59.882Z,101860.17
2022-10-28T05:01:27.188Z,101855.80
2022-10-28T05:03:54.388Z,101857.59
2022-10-28T05:06:21.486Z,101853.21
2022-10-28T05:08:48.581Z,101853.63
2022-10-28T05:11:15.608Z,101851.19
2022-10-28T05:13:42.736Z,101851.84
2022-10-28T05:16:09.814Z,101853.87
2022-10-28T05:18:37.077Z,101859.11
2022-10-28T05:21:04.440Z,101859.40
2022-10-28T05:23:31.406Z,101859.54
2022-10-28T05:25:58.567Z,101859.44
2022-10-28T05:28:25.828Z,101859.21
2022-10-28T05:30:52.908Z,101857.30
2022-10-28T05:33:20.082Z,101859.82
2022-10-28T05:35:47.108Z,101864.55
2022-10-28T05:38:14.269Z,101862.54
2022-10-28T05:40:41.694Z,101863.95
2022-10-28T05:43:09.991Z,101862.16
2022-10-28T05:45:37.442Z,101862.36
2022-10-28T05:48:04.773Z,101861.86
2022-10-28T05:50:31.921Z,101864.11
2022-10-28T05:52:58.800Z,101862.15
2022-10-28T05:55:29.073Z,101864.44
2022-10-28T05:57:57.347Z,101863.64
2022-10-28T06:00:26.625Z,101867.41
2022-10-28T06:03:08.871Z,101865.93
2022-10-28T06:05:38.932Z,101867.16
2022-10-28T06:08:06.131Z,101865.98
2022-10-28T06:10:33.896Z,101864.79
2022-10-28T06:13:00.615Z,101868.07
2022-10-28T06:15:27.594Z,101867.46
2022-10-28T06:17:54.539Z,101868.04
2022-10-28T06:20:21.283Z,101870.16
2022-10-28T06:22:50.486Z,101879.02
2022-10-28T06:25:19.868Z,101879.85
2022-10-28T06:27:58.253Z,101883.22
2022-10-28T06:30:26.484Z,101885.35
2022-10-28T06:32:56.400Z,101884.27
2022-10-28T06:35:23.231Z,101882.75
2022-10-28T06:37:56.584Z,101881.92
2022-10-28T06:40:24.757Z,101880.67
2022-10-28T06:43:04.151Z,101887.28
2022-10-28T06:45:33.073Z,101884.16
2022-10-28T06:48:05.490Z,101885.23
2022-10-28T06:50:34.463Z,101891.05
2022-10-28T06:53:02.344Z,101889.36
2022-10-28T06:55:30.521Z,101890.77
2022-10-28T06:58:02.323Z,101893.94
2022-10-28T07:00:34.242Z,101898.71
2022-10-28T07:03:02.612Z,101903.13
2022-10-28T07:05:29.482Z,101902.44
2022-10-28T07:07:56.727Z,101900.16
2022-10-28T07:10:23.818Z,101898.84
2022-10-28T07:12:53.286Z,101897.41
2022-10-28T07:15:20.946Z,101898.27
2022-10-28T07:17:56.462Z,101896.44
2022-10-28T07:20:26.718Z,101894.89
2022-10-28T07:22:59.205Z,101897.81
2022-10-28T07:25:28.142Z,101901.20
2022-10-28T07:27:57.975Z,101899.75
2022-10-28T07:30:25.893Z,101896.05
2022-10-28T07:32:53.044Z,101894.86
2022-10-28T07:35:20.588Z,101898.02
2022-10-28T07:37:47.519Z,101897.38
2022-10-28T07:40:14.380Z,101902.29
2022-10-28T07:42:41.202Z,101903.86
2022-10-28T07:45:08.699Z,101900.83
2022-10-28T07:47:35.581Z,101895.55
2022-10-28T07:50:03.920Z,101894.46
2022-10-28T07:52:30.802Z,101898.22
2022-10-28T07:54:57.631Z,101897.31
2022-10-28T07:57:24.581Z,101904.11
2022-10-28T07:59:51.630Z,101900.50
2022-10-28T08:02:21.767Z,101899.89
2022-10-28T08:04:48.597Z,101899.45
2022-10-28T08:07:15.979Z,101904.27
2022-10-28T08:09:42.983Z,101902.67
2022-10-28T08:12:13.457Z,101903.73
2022-10-28T08:14:40.882Z,101901.41
2022-10-28T08:17:08.096Z,101898.92
2022-10-28T08:19:34.887Z,101896.20
2022-10-28T08:22:02.411Z,101901.52
2022-10-28T08:24:29.330Z,101903.55
2022-10-28T08:26:56.645Z,101902.97
2022-10-28T08:29:27.719Z,101906.92
2022-10-28T08:31:57.386Z,101905.55
2022-10-28T08:34:28.792Z,101900.63
2022-10-28T08:36:56.221Z,101897.30
2022-10-28T08:39:23.055Z,101899.23
2022-10-28T08:42:22.029Z,101895.20
2022-10-28T08:45:19.673Z,101899.09
2022-10-28T08:48:10.581Z,101900.41
2022-10-28T08:50:49.217Z,101896.27
2022-10-28T08:53:26.543Z,101895.59
2022-10-28T08:55:59.499Z,101891.17
2022-10-28T08:58:32.627Z,101888.98
2022-10-28T09:00:59.660Z,101885.77
2022-10-28T09:03:34.440Z,101889.18
2022-10-28T09:06:07.168Z,101885.49
2022-10-28T09:08:40.846Z,101885.49
2022-10-28T09:11:10.311Z,101880.30
2022-10-28T09:14:15.906Z,101876.08
2022-10-28T09:16:48.373Z,101871.55
2022-10-28T09:19:30.064Z,101870.77
2022-10-28T09:22:12.278Z,101867.64
2022-10-28T09:24:48.150Z,101863.70
2022-10-28T09:27:58.647Z,101863.10
2022-10-28T09:31:10.593Z,101861.63
2022-10-28T09:33:50.772Z,101853.33
2022-10-28T09:36:42.771Z,101849.30
2022-10-28T09:39:19.707Z,101850.41
2022-10-28T09:41:50.481Z,101859.16
2022-10-28T09:44:41.152Z,101856.17
2022-10-28T09:47:18.832Z,101854.23
2022-10-28T09:49:48.183Z,101849.56
2022-10-28T09:53:19.680Z,101846.43
2022-10-28T09:55:46.568Z,101844.10
2022-10-28T09:58:13.385Z,101839.15
2022-10-28T10:00:40.800Z,101838.23
2022-10-28T10:03:08.160Z,101839.05
2022-10-28T10:05:42.907Z,101831.79
2022-10-28T10:08:15.372Z,101827.95
2022-10-28T10:10:57.274Z,101830.11
2022-10-28T10:13:29.107Z,101830.52
2022-10-28T10:16:05.046Z,101823.30
2022-10-28T10:18:32.511Z,101820.15
2022-10-28T10:21:00.030Z,101814.59
2022-10-28T10:23:36.335Z,101812.42
2022-10-28T10:26:13.067Z,101806.39
2022-10-28T10:28:49.326Z,101804.98
2022-10-28T10:31:26.513Z,101802.77
2022-10-28T10:33:56.870Z,101804.09
2022-10-28T10:36:28.433Z,101801.66
2022-10-28T10:39:01.575Z,101801.67
2022-10-28T10:41:43.201Z,101798.74
2022-10-28T10:44:22.041Z,101797.23
2022-10-28T10:46:55.032Z,101793.19
2022-10-28T10:49:21.747Z,101788.33
2022-10-28T10:51:53.584Z,101787.77
2022-10-28T10:54:20.619Z,101787.70
2022-10-28T10:56:47.544Z,101785.05
2022-10-28T10:59:29.876Z,101780.16
2022-10-28T11:01:59.037Z,101782.63
2022-10-28T11:04:29.746Z,101778.30
2022-10-28T11:06:57.765Z,101778.35
2022-10-28T11:09:37.961Z,101775.29
2022-10-28T11:12:38.394Z,101771.25
2022-10-28T11:15:11.410Z,101767.53
2022-10-28T11:17:38.653Z,101759.58
2022-10-28T11:20:25.576Z,101759.85
2022-10-28T11:23:19.986Z,101756.06
2022-10-28T11:25:52.814Z,101759.23
2022-10-28T11:29:07.056Z,101752.43
2022-10-28T11:32:22.151Z,101752.40
2022-10-28T11:35:30.763Z,101748.14
2022-10-28T11:38:23.887Z,101741.95
2022-10-28T11:41:21.681Z,101738.14
2022-10-28T11:43:57.672Z,101735.61
2022-10-28T11:47:06.211Z,101737.52
2022-10-28T11:50:17.593Z,101734.74
2022-10-28T11:53:20.066Z,101734.36
2022-10-28T11:56:20.886Z,101733.47
2022-10-28T11:59:25.009Z,101729.55
2022-10-28T12:02:53.562Z,101726.73
2022-10-28T12:05:36.995Z,101730.20
2022-10-28T12:08:21.965Z,101729.82
2022-10-28T12:11:21.626Z,101724.77
2022-10-28T12:14:05.077Z,101723.39
2022-10-28T12:16:45.669Z,101722.41
2022-10-28T12:19:21.742Z,101723.02
2022-10-28T12:22:05.282Z,101721.26
2022-10-28T12:24:37.158Z,101721.29
2022-10-28T12:27:18.278Z,101721.73
2022-10-28T12:29:51.937Z,101719.14
2022-10-28T12:32:26.069Z,101717.65
2022-10-28T12:35:13.957Z,101716.31
2022-10-28T12:37:52.911Z,101714.95
2022-10-28T12:40:25.960Z,101714.31
2022-10-28T12:43:14.268Z,101711.48
2022-10-28T12:45:43.015Z,101711.48
2022-10-28T12:48:45.103Z,101712.81
2022-10-28T12:51:19.328Z,101704.70
2022-10-28T12:53:49.647Z,101702.04
2022-10-28T12:56:36.991Z,101703.61
2022-10-28T12:59:30.262Z,101700.60
2022-10-28T13:02:00.740Z,101697.14
2022-10-28T13:04:28.430Z,101692.70
2022-10-28T13:07:30.756Z,101694.24
2022-10-28T13:10:19.088Z,101694.14
2022-10-28T13:13:09.292Z,101699.53
2022-10-28T13:15:50.366Z,101693.27
2022-10-28T13:18:57.618Z,101691.92
2022-10-28T13:21:41.745Z,101690.36
2022-10-28T13:24:25.366Z,101691.63
2022-10-28T13:26:53.515Z,101692.33
2022-10-28T13:29:26.800Z,101691.29
2022-10-28T13:31:54.967Z,101692.38
2022-10-28T13:34:34.259Z,101691.46
2022-10-28T13:37:04.832Z,101684.91
2022-10-28T13:39:46.587Z,101684.00
2022-10-28T13:42:14.220Z,101685.27
2022-10-28T13:44:52.919Z,101683.25
2022-10-28T13:47:30.127Z,101681.92
2022-10-28T13:50:09.147Z,101677.98
2022-10-28T13:52:46.821Z,101674.32
2022-10-28T13:55:22.444Z,101673.52
2022-10-28T13:57:57.841Z,101667.75
2022-10-28T14:03:04.334Z,101667.14
2022-10-28T14:05:37.351Z,101666.92
2022-10-28T14:08:30.549Z,101667.89
2022-10-28T14:11:00.304Z,101668.83
2022-10-28T14:13:28.350Z,101669.90
2022-10-28T14:16:24.548Z,101658.52
2022-10-28T14:18:59.641Z,101658.80
2022-10-28T14:22:18.095Z,101654.42
2022-10-28T14:24:45.140Z,101657.27
2022-10-28T14:27:12.370Z,101656.47
2022-10-28T14:30:11.541Z,101656.36
2022-10-28T14:32:58.154Z,101664.28
2022-10-28T14:35:40.172Z,101661.48
2022-10-28T14:38:47.024Z,101663.27
2022-10-28T14:42:04.746Z,101659.60
2022-10-28T14:45:08.588Z,101656.84
2022-10-28T14:48:03.602Z,101654.15
2022-10-28T14:50:44.706Z,101652.07
2022-10-28T14:53:34.465Z,101652.84
2022-10-28T14:56:11.501Z,101655.05
2022-10-28T14:58:44.036Z,101657.05
2022-10-28T15:01:22.921Z,101656.98
2022-10-28T15:04:10.807Z,101656.58
2022-10-28T15:06:42.415Z,101651.45
2022-10-28T15:09:25.617Z,101649.66
2022-10-28T15:12:01.477Z,101653.73
2022-10-28T15:14:33.390Z,101654.66
2022-10-28T15:17:11.520Z,101653.95
2022-10-28T15:19:39.634Z,101656.73
2022-10-28T15:22:15.627Z,101651.41
2022-10-28T15:24:59.954Z,101652.81
2022-10-28T15:27:37.291Z,101655.23
2022-10-28T15:30:14.851Z,101649.29
2022-10-28T15:32:42.170Z,101651.89
2022-10-28T15:35:27.814Z,101657.13
2022-10-28T15:37:58.674Z,101655.70
2022-10-28T15:40:34.672Z,101653.45
2022-10-28T15:43:04.375Z,101656.04
2022-10-28T15:45:38.323Z,101649.32
2022-10-28T15:48:29.041Z,101646.30
2022-10-28T15:51:12.560Z,101646.98
2022-10-28T15:53:44.317Z,101644.17
2022-10-28T15:56:13.969Z,101639.91
2022-10-28T15:58:43.492Z,101641.66
2022-10-28T16:01:34.755Z,101646.15
2022-10-28T16:04:01.993Z,101643.71
2022-10-28T16:06:37.999Z,101647.15
2022-10-28T16:09:09.122Z,101650.06
2022-10-28T16:11:42.040Z,101649.42
2022-10-28T16:14:33.650Z,101648.33
2022-10-28T16:17:23.243Z,101648.82
2022-10-28T16:19:58.237Z,101652.23
2022-10-28T16:22:29.141Z,101653.81
2022-10-28T16:24:56.945Z,101654.58
2022-10-28T16:27:27.973Z,101653.71
2022-10-28T16:29:54.964Z,101655.11
2022-10-28T16:32:30.771Z,101651.63
2022-10-28T16:34:59.891Z,101658.46
2022-10-28T16:37:34.498Z,101657.19
2022-10-28T16:40:01.520Z,101656.71
2022-10-28T16:42:29.810Z,101656.42
2022-10-28T16:44:56.940Z,101655.38
2022-10-28T16:47:26.320Z,101654.98
2022-10-28T16:49:57.290Z,101650.60
2022-10-28T16:52:29.494Z,101652.38
2022-10-28T16:54:58.121Z,101651.61
2022-10-28T16:57:25.925Z,101650.17
2022-10-28T16:59:53.881Z,101650.11
2022-10-28T17:02:34.259Z,101648.45
2022-10-28T17:05:04.640Z,101652.96
2022-10-28T17:07:31.697Z,101648.27
2022-10-28T17:09:58.734Z,101649.41
2022-10-28T17:12:27.320Z,101645.93
2022-10-28T17:14:54.429Z,101642.56
2022-10-28T17:17:21.467Z,101642.88
2022-10-28T17:19:48.651Z,101642.27
2022-10-28T17:22:15.782Z,101640.39
2022-10-28T17:24:42.760Z,101641.58
2022-10-28T17:27:09.987Z,101638.98
2022-10-28T17:29:38.180Z,101639.92
2022-10-28T17:32:08.844Z,101638.11
2022-10-28T17:34:36.547Z,101637.48
2022-10-28T17:37:03.967Z,101640.30
2022-10-28T17:39:31.168Z,101640.72
2022-10-28T17:41:58.323Z,101638.06
2022-10-28T17:44:25.765Z,101632.65
2022-10-28T17:46:52.902Z,101629.91
2022-10-28T17:49:19.929Z,101626.60
2022-10-28T17:51:46.900Z,101626.09
2022-10-28T17:54:13.987Z,101621.79
2022-10-28T17:56:41.435Z,101619.54
2022-10-28T17:59:08.944Z,101620.03
2022-10-28T18:01:36.325Z,101612.69
2022-10-28T18:04:04.971Z,101615.02
2022-10-28T18:06:32.205Z,101613.23
2022-10-28T18:08:59.401Z,101610.73
2022-10-28T18:11:26.829Z,101609.21
2022-10-28T18:13:55.737Z,101607.98
2022-10-28T18:16:27.268Z,101606.52
2022-10-28T18:18:55.501Z,101602.25
2022-10-28T18:21:24.043Z,101611.11
2022-10-28T18:24:02.923Z,101610.10
2022-10-28T18:26:34.939Z,101611.81
2022-10-28T18:29:05.721Z,101611.69
2022-10-28T18:31:33.605Z,101610.11
2022-10-28T18:34:01.671Z,101609.85
2022-10-28T18:36:33.714Z,101607.19
2022-10-28T18:39:04.549Z,101606.85
2022-10-28T18:41:33.951Z,101606.98
2022-10-28T18:44:03.919Z,101603.89
2022-10-28T18:46:37.295Z,101605.79
2022-10-28T18:49:05.056Z,101601.64
2022-10-28T18:51:34.048Z,101601.16
2022-10-28T18:54:01.697Z,101602.50
2022-10-28T18:56:29.850Z,101603.23
2022-10-28T18:58:58.373Z,101599.02
2022-10-28T19:01:28.269Z,101604.30
2022-10-28T19:03:58.315Z,101603.89
2022-10-28T19:06:30.144Z,101601.84
2022-10-28T19:09:00.326Z,101606.05
2022-10-28T19:11:29.773Z,101607.89
2022-10-28T19:13:59.555Z,101612.08
2022-10-28T19:16:29.364Z,101608.65
2022-10-28T19:18:58.519Z,101605.42
2022-10-28T19:21:27.172Z,101603.27
2022-10-28T19:23:54.851Z,101601.55
2022-10-28T19:26:22.617Z,101605.57
2022-10-28T19:28:50.414Z,101610.13
2022-10-28T19:31:21.004Z,101612.42
2022-10-28T19:33:48.696Z,101611.84
2022-10-28T19:36:23.310Z,101611.88
2022-10-28T19:38:53.163Z,101612.42
2022-10-28T19:41:26.293Z,101619.95
2022-10-28T19:43:59.255Z,101619.02
2022-10-28T19:46:31.109Z,101620.22
2022-10-28T19:49:00.308Z,101618.76
2022-10-28T19:51:30.443Z,101618.14
2022-10-28T19:54:04.478Z,101619.98
2022-10-28T19:56:33.821Z,101623.04
2022-10-28T19:59:03.751Z,101622.70
2022-10-28T20:01:39.080Z,101618.95
2022-10-28T20:04:07.630Z,101617.77
2022-10-28T20:06:38.966Z,101618.20
2022-10-28T20:09:06.760Z,101615.40
2022-10-28T20:11:37.152Z,101617.24
2022-10-28T20:14:11.910Z,101617.47
2022-10-28T20:16:42.021Z,101606.80
2022-10-28T20:19:09.259Z,101616.79
2022-10-28T20:21:37.759Z,101617.89
2022-10-28T20:24:06.454Z,101618.05
2022-10-28T20:26:36.215Z,101616.90
2022-10-28T20:29:05.998Z,101614.23
2022-10-28T20:31:33.250Z,101614.97
2022-10-28T20:34:05.450Z,101622.70
2022-10-28T20:36:40.600Z,101622.16
2022-10-28T20:39:15.953Z,101620.73
2022-10-28T20:41:46.042Z,101622.13
2022-10-28T20:44:13.201Z,101626.37
2022-10-28T20:46:40.606Z,101624.66
2022-10-28T20:49:12.589Z,101627.71
2022-10-28T20:51:39.996Z,101621.16
2022-10-28T20:54:07.528Z,101623.94
2022-10-28T20:56:38.261Z,101618.90
2022-10-28T20:59:05.677Z,101618.26
2022-10-28T21:01:38.976Z,101613.73
2022-10-28T21:04:10.490Z,101611.13
2022-10-28T21:06:39.337Z,101609.30
2022-10-28T21:09:07.292Z,101612.99
2022-10-28T21:11:34.488Z,101609.66
2022-10-28T21:14:02.149Z,101613.22
2022-10-28T21:16:29.933Z,101615.13
2022-10-28T21:18:58.814Z,101613.41
2022-10-28T21:21:27.240Z,101615.11
2022-10-28T21:23:56.392Z,101615.33
2022-10-28T21:26:23.353Z,101618.13
2022-10-28T21:28:52.275Z,101615.59
2022-10-28T21:31:21.308Z,101612.66
2022-10-28T21:36:19.912Z,101620.27
2022-10-28T21:38:47.573Z,101616.23
2022-10-28T21:41:18.959Z,101614.69
2022-10-28T21:43:49.636Z,101614.66
2022-10-28T21:46:18.653Z,101610.71
2022-10-28T21:48:45.947Z,101609.90
2022-10-28T21:51:15.453Z,101607.60
2022-10-28T21:53:44.314Z,101599.40
2022-10-28T21:56:19.283Z,101600.02
2022-10-28T21:58:49.364Z,101597.05
2022-10-28T22:01:20.603Z,101594.98
2022-10-28T22:03:48.365Z,101589.04
2022-10-28T22:06:15.580Z,101594.23
2022-10-28T22:08:42.745Z,101595.29
2022-10-28T22:11:17.178Z,101595.73
2022-10-28T22:13:44.749Z,101594.09
2022-10-28T22:16:17.521Z,101593.66
2022-10-28T22:18:44.799Z,101591.48
2022-10-28T22:21:18.917Z,101593.02
2022-10-28T22:23:46.704Z,101595.16
2022-10-28T22:26:19.832Z,101591.11
2022-10-28T22:28:47.631Z,101591.19
2022-10-28T22:31:18.355Z,101589.59
2022-10-28T22:36:17.305Z,101585.08
2022-10-28T22:38:45.156Z,101580.56
2022-10-28T22:41:14.525Z,101582.14
2022-10-28T22:43:45.282Z,101571.98
2022-10-28T22:46:14.496Z,101578.20
2022-10-28T22:48:41.589Z,101574.86
2022-10-28T22:51:09.252Z,101570.36
2022-10-28T22:53:38.408Z,101574.33
2022-10-28T22:56:07.467Z,101571.05
2022-10-28T22:58:34.997Z,101573.66
2022-10-28T23:01:16.902Z,101571.90
2022-10-28T23:03:46.818Z,101573.91
2022-10-28T23:06:16.771Z,101574.61
2022-10-28T23:08:44.551Z,101574.09
2022-10-28T23:11:13.535Z,101569.08
2022-10-28T23:13:40.748Z,101568.64
2022-10-28T23:16:13.326Z,101568.04
2022-10-28T23:18:41.541Z,101573.05
2022-10-28T23:21:17.122Z,101568.11
2022-10-28T23:23:51.178Z,101569.60
2022-10-28T23:26:22.189Z,101564.15
2022-10-28T23:28:53.836Z,101559.96
2022-10-28T23:31:21.644Z,101558.77
2022-10-28T23:33:49.668Z,101558.66
2022-10-28T23:36:17.024Z,101555.89
2022-10-28T23:38:44.189Z,101556.36
2022-10-28T23:41:15.668Z,101556.43
2022-10-28T23:43:42.724Z,101551.59
2022-10-28T23:46:10.872Z,101550.87
2022-10-28T23:48:38.349Z,101554.48
2022-10-28T23:51:06.208Z,101556.34
2022-10-28T23:53:33.537Z,101546.09
2022-10-28T23:56:00.840Z,101549.83
2022-10-28T23:58:27.867Z,101548.04
